Time;durP1;ratioP1;P1;durP2;ratioP2;P2;SDS_P1;SDS_P2;PMS_P1;PMS_P2;Temp;Humidity;BMP_temperature;BMP_pressure;BME280_temperature;BME280_humidity;BME280_pressure;Samples;Min_cycle;Max_cycle;Signal;HPM_P1;HPM_P2
2020/12/16 00:04:22;;;;;;;;;62.00;49.75;;;;;;;;12405599;28;8967;-52
2020/12/16 00:10:23;;;;;;;;;61.25;50.25;;;;;;;;12405242;28;8871;-50
2020/12/16 00:16:24;;;;;;;;;54.00;43.75;;;;;;;;12407239;28;8861;-51
2020/12/16 00:22:26;;;;;;;;;62.75;50.75;;;;;;;;12405166;28;8846;-51
2020/12/16 00:28:27;;;;;;;;;64.50;51.75;;;;;;;;12407540;28;9023;-51
2020/12/16 00:34:29;;;;;;;;;61.00;48.50;;;;;;;;12373011;28;9548;-51
2020/12/16 00:40:30;;;;;;;;;51.75;46.75;;;;;;;;12405499;28;8858;-52
2020/12/16 00:46:32;;;;;;;;;61.25;47.25;;;;;;;;12409043;28;9634;-53
2020/12/16 00:52:36;;;;;;;;;64.00;50.50;;;;;;;;12414440;28;8873;-48
2020/12/16 00:58:44;;;;;;;;;57.50;48.75;;;;;;;;12397616;28;8850;-51
2020/12/16 01:04:46;;;;;;;;;61.75;49.25;;;;;;;;12395194;28;8871;-55
2020/12/16 01:10:48;;;;;;;;;63.25;50.75;;;;;;;;12414149;28;8872;-53
2020/12/16 01:16:50;;;;;;;;;58.75;46.75;;;;;;;;12397143;28;8986;-48
2020/12/16 01:22:56;;;;;;;;;63.00;50.25;;;;;;;;12395245;28;8844;-51
2020/12/16 01:28:58;;;;;;;;;64.25;50.00;;;;;;;;12396796;28;8848;-49
2020/12/16 01:35:00;;;;;;;;;57.50;48.75;;;;;;;;12394983;28;9664;-53
2020/12/16 01:41:04;;;;;;;;;61.50;48.25;;;;;;;;12412774;28;8958;-49
2020/12/16 01:47:09;;;;;;;;;61.50;45.50;;;;;;;;12396159;28;9658;-51
2020/12/16 01:53:16;;;;;;;;;64.50;50.00;;;;;;;;12411654;28;9589;-50
2020/12/16 01:59:22;;;;;;;;;66.75;53.25;;;;;;;;12412861;28;8832;-49
2020/12/16 02:05:28;;;;;;;;;62.75;48.50;;;;;;;;12392983;28;8841;-51
2020/12/16 02:11:39;;;;;;;;;60.00;49.25;;;;;;;;12409995;28;8871;-53
2020/12/16 02:17:49;;;;;;;;;59.00;50.00;;;;;;;;12399324;28;8878;-52
2020/12/16 02:23:51;;;;;;;;;61.50;50.50;;;;;;;;12392154;28;8889;-51
2020/12/16 02:29:56;;;;;;;;;63.25;49.00;;;;;;;;12411913;28;8891;-52
2020/12/16 02:36:20;;;;;;;;;62.50;52.00;;;;;;;;12372315;28;8883;-52
2020/12/16 02:42:29;;;;;;;;;68.00;54.00;;;;;;;;12393999;28;8856;-51
2020/12/16 02:48:32;;;;;;;;;69.50;49.75;;;;;;;;12408858;28;8836;-52
2020/12/16 02:54:35;;;;;;;;;66.00;51.75;;;;;;;;12393022;28;8866;-51
2020/12/16 03:00:50;;;;;;;;;39.75;36.00;;;;;;;;12391525;28;8852;-53
2020/12/16 03:07:29;;;;;;;;;56.25;48.25;;;;;;;;12401586;28;8848;-50
2020/12/16 03:13:32;;;;;;;;;65.00;48.75;;;;;;;;12392362;28;9044;-49
2020/12/16 03:19:36;;;;;;;;;60.00;48.50;;;;;;;;12390043;28;8834;-53
2020/12/16 03:25:38;;;;;;;;;60.50;49.25;;;;;;;;12409110;28;8944;-51
2020/12/16 03:31:59;;;;;;;;;58.50;47.50;;;;;;;;12406794;28;8868;-51
2020/12/16 03:38:19;;;;;;;;;63.50;49.75;;;;;;;;12391314;28;8856;-51
2020/12/16 03:44:24;;;;;;;;;64.75;51.25;;;;;;;;12389657;28;8919;-49
2020/12/16 03:50:31;;;;;;;;;62.25;49.25;;;;;;;;12372920;28;8988;-51
2020/12/16 03:56:33;;;;;;;;;65.75;52.25;;;;;;;;12389913;28;8867;-52
2020/12/16 04:03:04;;;;;;;;;61.75;50.50;;;;;;;;12388241;28;8876;-52
2020/12/16 04:09:26;;;;;;;;;64.25;50.25;;;;;;;;12406882;28;8890;-50
2020/12/16 04:15:32;;;;;;;;;62.75;46.25;;;;;;;;12404200;28;8934;-52
2020/12/16 04:21:33;;;;;;;;;61.75;48.50;;;;;;;;12394462;28;8855;-50
2020/12/16 04:27:35;;;;;;;;;48.25;38.25;;;;;;;;12397982;28;8846;-53
2020/12/16 04:33:38;;;;;;;;;57.25;46.25;;;;;;;;12397484;28;9686;-52
2020/12/16 04:39:40;;;;;;;;;57.75;47.25;;;;;;;;12416955;28;8882;-51
2020/12/16 04:45:45;;;;;;;;;60.25;48.75;;;;;;;;12397468;28;8843;-48
2020/12/16 04:51:48;;;;;;;;;61.00;46.25;;;;;;;;12416199;28;8849;-52
2020/12/16 04:58:03;;;;;;;;;61.50;49.00;;;;;;;;12396675;28;8856;-48
2020/12/16 05:04:04;;;;;;;;;67.25;51.00;;;;;;;;12867806;22;8947;-48
2020/12/16 05:10:30;;;;;;;;;54.75;45.75;;;;;;;;12406977;28;8982;-52
2020/12/16 05:16:50;;;;;;;;;63.00;50.00;;;;;;;;12415303;28;8958;-50
2020/12/16 05:22:58;;;;;;;;;69.50;53.00;;;;;;;;12416543;28;8887;-52
2020/12/16 05:29:06;;;;;;;;;64.00;48.75;;;;;;;;12414897;28;9596;-51
2020/12/16 05:35:33;;;;;;;;;66.00;47.00;;;;;;;;12411756;28;8840;-52
2020/12/16 05:41:34;;;;;;;;;68.25;55.75;;;;;;;;12414379;28;8843;-52
2020/12/16 05:47:39;;;;;;;;;59.50;47.50;;;;;;;;12411615;28;8846;-49
2020/12/16 05:53:41;;;;;;;;;57.50;48.00;;;;;;;;12412288;28;8847;-49
2020/12/16 06:00:09;;;;;;;;;64.00;51.00;;;;;;;;12413029;28;8846;-53
2020/12/16 06:06:16;;;;;;;;;60.50;51.50;;;;;;;;12483390;28;8851;-53
2020/12/16 06:12:17;;;;;;;;;65.75;48.50;;;;;;;;12510209;28;8836;-52
2020/12/16 06:18:22;;;;;;;;;68.75;53.00;;;;;;;;12508149;28;8963;-54
2020/12/16 06:24:28;;;;;;;;;69.00;54.75;;;;;;;;12509048;28;8820;-52
2020/12/16 06:30:35;;;;;;;;;73.50;56.00;;;;;;;;12508755;28;8871;-50
2020/12/16 06:36:43;;;;;;;;;70.25;55.00;;;;;;;;12507685;28;9470;-52
2020/12/16 06:42:47;;;;;;;;;70.25;54.00;;;;;;;;12509431;28;8913;-53
2020/12/16 06:48:48;;;;;;;;;73.50;56.25;;;;;;;;12505716;28;8849;-50
2020/12/16 06:54:53;;;;;;;;;63.25;48.00;;;;;;;;12508649;28;8857;-53
2020/12/16 07:01:16;;;;;;;;;62.00;49.25;;;;;;;;12506363;28;8858;-55
2020/12/16 07:07:54;;;;;;;;;69.00;56.50;;;;;;;;12501195;28;9548;-52
2020/12/16 07:14:12;;;;;;;;;67.75;54.25;;;;;;;;12503150;28;8826;-54
2020/12/16 07:20:32;;;;;;;;;69.00;54.75;;;;;;;;12502816;28;8824;-52
2020/12/16 07:26:48;;;;;;;;;67.25;52.50;;;;;;;;12505894;28;9684;-55
2020/12/16 07:32:50;;;;;;;;;71.50;53.50;;;;;;;;12500168;28;8866;-54
2020/12/16 07:38:55;;;;;;;;;62.00;50.00;;;;;;;;12489237;28;8866;-51
2020/12/16 07:44:59;;;;;;;;;52.50;47.25;;;;;;;;12504793;28;8880;-52
2020/12/16 07:51:07;;;;;;;;;68.00;51.25;;;;;;;;12512784;28;8849;-53
2020/12/16 07:57:09;;;;;;;;;70.00;56.50;;;;;;;;12511746;28;8852;-55
2020/12/16 08:03:10;;;;;;;;;68.25;57.00;;;;;;;;12504388;28;8850;-50
2020/12/16 08:09:20;;;;;;;;;68.00;54.00;;;;;;;;12511828;28;8871;-52
2020/12/16 08:15:22;;;;;;;;;75.50;55.00;;;;;;;;12499339;28;10069;-51
2020/12/16 08:21:25;;;;;;;;;69.00;56.25;;;;;;;;12501051;28;9005;-54
2020/12/16 08:27:27;;;;;;;;;66.75;54.25;;;;;;;;12513642;28;8871;-51
2020/12/16 08:33:30;;;;;;;;;69.50;55.50;;;;;;;;12509241;28;8887;-53
2020/12/16 08:39:34;;;;;;;;;74.00;57.25;;;;;;;;12510581;28;8848;-55
2020/12/16 08:45:35;;;;;;;;;71.50;59.00;;;;;;;;12508729;28;8924;-53
2020/12/16 08:51:44;;;;;;;;;74.50;59.50;;;;;;;;12496696;28;8856;-53
2020/12/16 08:57:54;;;;;;;;;64.00;54.00;;;;;;;;12497507;28;8830;-54
2020/12/16 09:03:56;;;;;;;;;73.75;57.75;;;;;;;;12487669;28;8888;-59
2020/12/16 09:09:58;;;;;;;;;62.00;49.75;;;;;;;;12497611;28;8844;-57
2020/12/16 09:15:59;;;;;;;;;73.00;57.00;;;;;;;;12511144;28;8836;-53
2020/12/16 09:22:02;;;;;;;;;74.25;58.00;;;;;;;;12508756;28;8839;-54
2020/12/16 09:28:05;;;;;;;;;61.25;52.25;;;;;;;;12514001;28;8846;-59
2020/12/16 09:34:07;;;;;;;;;70.00;58.75;;;;;;;;12513227;28;8844;-58
2020/12/16 09:40:11;;;;;;;;;68.00;53.75;;;;;;;;12514857;28;9369;-55
2020/12/16 09:46:24;;;;;;;;;64.50;53.75;;;;;;;;12508651;28;8871;-53
2020/12/16 09:52:26;;;;;;;;;66.50;51.50;;;;;;;;12519462;28;8855;-56
2020/12/16 09:58:36;;;;;;;;;59.75;49.50;;;;;;;;12517949;28;8956;-53
2020/12/16 10:04:38;;;;;;;;;66.00;52.00;;;;;;;;12513659;28;8918;-54
2020/12/16 10:10:39;;;;;;;;;69.00;52.50;;;;;;;;12515042;28;8847;-57
2020/12/16 10:16:49;;;;;;;;;63.50;49.50;;;;;;;;12514033;28;8842;-53
2020/12/16 10:22:50;;;;;;;;;63.75;52.00;;;;;;;;12515750;28;8832;-56
2020/12/16 10:28:52;;;;;;;;;74.25;58.00;;;;;;;;12514377;28;8946;-54
2020/12/16 10:34:53;;;;;;;;;59.75;49.00;;;;;;;;12508197;28;8881;-54
2020/12/16 10:40:55;;;;;;;;;64.50;52.00;;;;;;;;12499393;28;8824;-53
2020/12/16 10:46:56;;;;;;;;;64.50;46.25;;;;;;;;12514493;28;8844;-57
2020/12/16 10:52:59;;;;;;;;;62.25;48.00;;;;;;;;12508684;28;8838;-55
2020/12/16 10:59:01;;;;;;;;;56.50;44.75;;;;;;;;12507189;28;8835;-52
2020/12/16 11:05:03;;;;;;;;;58.75;43.25;;;;;;;;12515240;28;8878;-54
2020/12/16 11:11:05;;;;;;;;;64.50;47.75;;;;;;;;12513035;28;8879;-55
2020/12/16 11:17:06;;;;;;;;;59.00;45.75;;;;;;;;12512526;28;8847;-56
2020/12/16 11:23:08;;;;;;;;;43.25;39.75;;;;;;;;12497594;28;8836;-56
2020/12/16 11:29:10;;;;;;;;;61.50;49.75;;;;;;;;12516203;28;9007;-52
2020/12/16 11:35:11;;;;;;;;;46.25;40.75;;;;;;;;12507190;28;8899;-55
2020/12/16 11:41:12;;;;;;;;;71.00;51.75;;;;;;;;12514229;28;8824;-60
2020/12/16 11:47:14;;;;;;;;;51.00;44.25;;;;;;;;12518732;28;8832;-58
2020/12/16 11:53:16;;;;;;;;;64.75;50.50;;;;;;;;12503919;28;8864;-52
2020/12/16 11:59:17;;;;;;;;;66.50;52.25;;;;;;;;12505479;28;8861;-54
2020/12/16 12:05:19;;;;;;;;;49.25;43.50;;;;;;;;12501158;28;9580;-53
2020/12/16 12:11:20;;;;;;;;;51.25;43.00;;;;;;;;12520593;28;8831;-55
2020/12/16 12:17:22;;;;;;;;;61.25;47.25;;;;;;;;12515746;28;8898;-59
2020/12/16 12:23:23;;;;;;;;;68.50;52.75;;;;;;;;12501031;28;9655;-57
2020/12/16 12:29:25;;;;;;;;;60.75;49.75;;;;;;;;12510978;28;9587;-55
2020/12/16 12:35:26;;;;;;;;;61.25;49.50;;;;;;;;12514194;28;8840;-57
2020/12/16 12:41:28;;;;;;;;;55.75;44.50;;;;;;;;12512437;28;9686;-56
2020/12/16 12:47:29;;;;;;;;;61.25;51.50;;;;;;;;12507801;28;8832;-56
2020/12/16 12:53:31;;;;;;;;;58.25;46.00;;;;;;;;12510700;28;8886;-57
2020/12/16 12:59:34;;;;;;;;;61.00;48.00;;;;;;;;12537166;28;9577;-56
2020/12/16 13:05:35;;;;;;;;;62.00;49.50;;;;;;;;12518972;28;8858;-54
2020/12/16 13:11:36;;;;;;;;;71.25;54.75;;;;;;;;12526042;28;8948;-52
2020/12/16 13:17:38;;;;;;;;;52.50;43.75;;;;;;;;12508086;28;8861;-54
2020/12/16 13:23:39;;;;;;;;;72.00;54.75;;;;;;;;12509651;28;8873;-56
2020/12/16 13:29:41;;;;;;;;;62.50;51.50;;;;;;;;12517397;28;8957;-56
2020/12/16 13:35:44;;;;;;;;;66.00;52.25;;;;;;;;12518811;28;8925;-54
2020/12/16 13:41:49;;;;;;;;;65.50;53.75;;;;;;;;12520476;28;8847;-54
2020/12/16 13:47:50;;;;;;;;;60.25;47.50;;;;;;;;12523116;28;8854;-55
2020/12/16 13:53:52;;;;;;;;;67.25;52.00;;;;;;;;12516706;28;9701;-57
2020/12/16 13:59:53;;;;;;;;;60.75;47.75;;;;;;;;12518546;28;8848;-56
2020/12/16 14:05:55;;;;;;;;;60.75;48.00;;;;;;;;12518702;28;8844;-55
2020/12/16 14:11:56;;;;;;;;;59.50;46.75;;;;;;;;12521860;28;8904;-55
2020/12/16 14:17:57;;;;;;;;;64.50;50.50;;;;;;;;12513669;28;9047;-53
2020/12/16 14:24:00;;;;;;;;;57.75;44.75;;;;;;;;12515429;28;8876;-55
2020/12/16 14:30:01;;;;;;;;;65.75;53.00;;;;;;;;12512295;28;8909;-55
2020/12/16 14:36:04;;;;;;;;;66.00;45.50;;;;;;;;12520872;28;8839;-54
2020/12/16 14:42:06;;;;;;;;;62.25;49.00;;;;;;;;12512042;28;8852;-56
2020/12/16 14:48:07;;;;;;;;;65.25;52.50;;;;;;;;12484469;28;8835;-56
2020/12/16 14:54:09;;;;;;;;;53.50;45.50;;;;;;;;12510783;28;8832;-56
2020/12/16 15:00:10;;;;;;;;;60.00;48.00;;;;;;;;12518104;28;8846;-54
2020/12/16 15:06:11;;;;;;;;;57.00;45.75;;;;;;;;12510856;28;9249;-56
2020/12/16 15:12:13;;;;;;;;;59.00;43.25;;;;;;;;12506131;28;9252;-57
2020/12/16 15:18:14;;;;;;;;;57.00;44.50;;;;;;;;12509280;28;8838;-56
2020/12/16 15:24:15;;;;;;;;;57.50;45.75;;;;;;;;12500879;28;8852;-54
2020/12/16 15:30:17;;;;;;;;;65.25;51.50;;;;;;;;12510947;28;8870;-54
2020/12/16 15:36:19;;;;;;;;;53.75;43.25;;;;;;;;12502902;28;8836;-54
2020/12/16 15:42:20;;;;;;;;;60.00;45.00;;;;;;;;12507315;28;9028;-55
2020/12/16 15:48:23;;;;;;;;;55.25;46.00;;;;;;;;12508110;28;8952;-56
2020/12/16 15:54:24;;;;;;;;;59.50;47.50;;;;;;;;12503532;28;8850;-56
2020/12/16 16:00:26;;;;;;;;;55.75;48.00;;;;;;;;12505276;28;8818;-55
2020/12/16 16:06:27;;;;;;;;;63.50;47.25;;;;;;;;12512123;28;8921;-56
2020/12/16 16:12:29;;;;;;;;;52.25;44.50;;;;;;;;12499551;28;8966;-55
2020/12/16 16:18:31;;;;;;;;;57.50;46.75;;;;;;;;12495563;28;8915;-55
2020/12/16 16:24:34;;;;;;;;;54.00;43.50;;;;;;;;12501399;28;8843;-55
2020/12/16 16:30:35;;;;;;;;;56.00;41.25;;;;;;;;12504202;28;8850;-54
2020/12/16 16:36:37;;;;;;;;;64.00;47.50;;;;;;;;12503619;28;8907;-52
2020/12/16 16:42:39;;;;;;;;;47.00;41.25;;;;;;;;12502649;28;8842;-53
2020/12/16 16:48:40;;;;;;;;;58.75;47.50;;;;;;;;12505457;28;8868;-54
2020/12/16 16:54:41;;;;;;;;;59.75;45.00;;;;;;;;12502937;28;8889;-54
2020/12/16 17:00:43;;;;;;;;;53.50;47.25;;;;;;;;12486577;28;8849;-49
2020/12/16 17:06:44;;;;;;;;;56.75;46.75;;;;;;;;12509632;28;8965;-53
2020/12/16 17:12:48;;;;;;;;;67.50;47.50;;;;;;;;12504286;28;8928;-55
2020/12/16 17:18:49;;;;;;;;;61.00;47.50;;;;;;;;12503764;28;9013;-53
2020/12/16 17:24:51;;;;;;;;;62.25;49.75;;;;;;;;12502350;28;8861;-54
2020/12/16 17:30:52;;;;;;;;;65.00;50.00;;;;;;;;12508087;28;8865;-52
2020/12/16 17:36:54;;;;;;;;;62.25;48.00;;;;;;;;12484233;28;8852;-53
2020/12/16 17:42:55;;;;;;;;;65.75;50.25;;;;;;;;12510558;28;8867;-56
2020/12/16 17:48:57;;;;;;;;;68.00;50.25;;;;;;;;12511539;28;8836;-51
2020/12/16 17:54:59;;;;;;;;;61.00;48.25;;;;;;;;12509303;28;8836;-52
2020/12/16 18:01:00;;;;;;;;;63.75;50.50;;;;;;;;12512251;28;9017;-51
2020/12/16 18:07:02;;;;;;;;;57.00;46.25;;;;;;;;12505774;28;9772;-49
2020/12/16 18:13:04;;;;;;;;;75.25;56.75;;;;;;;;12509344;28;8869;-53
2020/12/16 18:19:06;;;;;;;;;72.50;54.00;;;;;;;;12511000;28;8969;-51
2020/12/16 18:25:10;;;;;;;;;56.25;48.25;;;;;;;;12507940;28;8838;-53
2020/12/16 18:31:12;;;;;;;;;64.50;52.75;;;;;;;;12509658;28;8862;-54
2020/12/16 18:37:16;;;;;;;;;64.00;49.00;;;;;;;;12508327;28;8927;-54
2020/12/16 18:43:20;;;;;;;;;64.00;52.00;;;;;;;;12505793;28;8828;-53
2020/12/16 18:49:21;;;;;;;;;64.25;52.25;;;;;;;;12508966;28;8887;-53
2020/12/16 18:55:23;;;;;;;;;63.75;52.50;;;;;;;;12507458;28;8828;-53
2020/12/16 19:01:24;;;;;;;;;67.00;49.00;;;;;;;;12508033;28;8832;-54
2020/12/16 19:07:27;;;;;;;;;68.75;53.75;;;;;;;;12507756;28;8870;-54
2020/12/16 19:13:33;;;;;;;;;66.00;55.00;;;;;;;;12498651;28;8879;-54
2020/12/16 19:19:35;;;;;;;;;71.50;55.25;;;;;;;;12507761;28;8832;-52
2020/12/16 19:25:37;;;;;;;;;65.25;51.25;;;;;;;;12505746;28;8848;-51
2020/12/16 19:31:39;;;;;;;;;52.25;42.00;;;;;;;;12506234;28;8958;-54
2020/12/16 19:37:43;;;;;;;;;65.50;51.75;;;;;;;;12505802;28;8844;-52
2020/12/16 19:43:45;;;;;;;;;64.00;51.00;;;;;;;;12505391;28;8953;-53
2020/12/16 19:49:46;;;;;;;;;68.25;51.75;;;;;;;;12507474;28;8997;-52
2020/12/16 19:55:48;;;;;;;;;69.00;53.75;;;;;;;;12503631;28;8832;-51
2020/12/16 20:01:51;;;;;;;;;64.75;51.75;;;;;;;;12505102;28;8949;-52
2020/12/16 20:07:52;;;;;;;;;66.50;52.00;;;;;;;;12504151;28;8858;-54
2020/12/16 20:13:54;;;;;;;;;63.50;52.00;;;;;;;;12503833;28;8865;-51
2020/12/16 20:19:55;;;;;;;;;67.50;54.00;;;;;;;;12505838;28;8834;-53
2020/12/16 20:25:58;;;;;;;;;65.75;54.50;;;;;;;;12504352;28;8841;-52
2020/12/16 20:31:59;;;;;;;;;68.50;56.00;;;;;;;;12504580;28;8830;-53
2020/12/16 20:38:11;;;;;;;;;68.25;53.00;;;;;;;;12504574;28;8956;-54
2020/12/16 20:44:14;;;;;;;;;61.50;49.00;;;;;;;;12503353;28;8866;-51
2020/12/16 20:50:16;;;;;;;;;61.25;50.25;;;;;;;;12504508;28;9444;-49
2020/12/16 20:56:17;;;;;;;;;43.75;41.50;;;;;;;;12502925;28;8826;-52
2020/12/16 21:02:19;;;;;;;;;74.25;58.25;;;;;;;;12503124;28;8861;-51
2020/12/16 21:08:24;;;;;;;;;67.00;50.75;;;;;;;;12512247;28;9004;-51
2020/12/16 21:14:25;;;;;;;;;68.25;53.75;;;;;;;;12512156;28;8846;-52
2020/12/16 21:20:27;;;;;;;;;50.75;39.00;;;;;;;;12513487;28;8850;-52
2020/12/16 21:26:29;;;;;;;;;61.75;49.75;;;;;;;;12512306;28;8857;-48
2020/12/16 21:32:30;;;;;;;;;63.75;48.75;;;;;;;;12512163;28;8826;-50
2020/12/16 21:38:42;;;;;;;;;64.00;51.25;;;;;;;;12502923;28;8856;-51
2020/12/16 21:44:45;;;;;;;;;66.00;49.25;;;;;;;;12511958;28;8846;-51
2020/12/16 21:50:47;;;;;;;;;64.50;49.25;;;;;;;;12511775;28;8921;-54
2020/12/16 21:56:48;;;;;;;;;63.75;51.00;;;;;;;;12509861;28;9580;-50
2020/12/16 22:02:50;;;;;;;;;66.50;55.50;;;;;;;;12511586;28;9009;-52
2020/12/16 22:09:09;;;;;;;;;63.25;49.75;;;;;;;;12509485;28;8845;-53
2020/12/16 22:15:10;;;;;;;;;57.75;46.50;;;;;;;;12509375;28;8857;-54
2020/12/16 22:21:12;;;;;;;;;59.75;45.25;;;;;;;;12510929;28;8854;-52
2020/12/16 22:27:14;;;;;;;;;55.00;45.25;;;;;;;;12509726;28;8833;-52
2020/12/16 22:33:15;;;;;;;;;51.50;45.25;;;;;;;;12511200;28;8826;-52
2020/12/16 22:39:20;;;;;;;;;63.50;50.25;;;;;;;;12508763;28;8846;-52
2020/12/16 22:45:22;;;;;;;;;61.75;50.25;;;;;;;;12508120;28;8993;-50
2020/12/16 22:51:23;;;;;;;;;62.75;49.00;;;;;;;;12508985;28;8891;-52
2020/12/16 22:57:27;;;;;;;;;63.25;52.00;;;;;;;;12507988;28;9637;-52
2020/12/16 23:03:28;;;;;;;;;61.75;50.00;;;;;;;;12508870;28;8858;-50
2020/12/16 23:09:36;;;;;;;;;63.00;48.50;;;;;;;;12498986;28;9605;-49
2020/12/16 23:15:37;;;;;;;;;63.25;49.75;;;;;;;;12506704;28;8881;-49
2020/12/16 23:21:42;;;;;;;;;53.75;48.00;;;;;;;;12507816;28;8842;-50
2020/12/16 23:27:47;;;;;;;;;58.00;48.75;;;;;;;;12505321;28;8879;-50
2020/12/16 23:33:49;;;;;;;;;55.75;45.50;;;;;;;;12507191;28;8878;-50
2020/12/16 23:39:52;;;;;;;;;51.75;45.50;;;;;;;;12504907;28;8854;-49
2020/12/16 23:45:55;;;;;;;;;59.00;45.25;;;;;;;;12505349;28;8837;-48
2020/12/16 23:51:56;;;;;;;;;57.75;45.50;;;;;;;;12506199;28;8826;-48
2020/12/16 23:57:58;;;;;;;;;57.25;48.00;;;;;;;;12487184;28;8949;-50
